createdAt,value
2018-04-29T00:03:37.511Z,100609
2018-04-29T00:08:29.735Z,100602
2018-04-29T00:13:21.226Z,100592
2018-04-29T00:18:12.735Z,100576
2018-04-29T00:23:04.259Z,100589
2018-04-29T00:27:56.477Z,100563
2018-04-29T00:32:48.055Z,100587
2018-04-29T00:37:41.016Z,100589
2018-04-29T00:42:33.223Z,100583
2018-04-29T00:47:24.701Z,100581
2018-04-29T00:52:16.934Z,100583
2018-04-29T00:57:09.137Z,100572
2018-04-29T01:02:00.628Z,100544
2018-04-29T01:06:52.861Z,100549
2018-04-29T01:11:44.376Z,100552
2018-04-29T01:16:35.902Z,100544
2018-04-29T01:21:27.390Z,100562
2018-04-29T01:26:18.916Z,100558
2018-04-29T01:31:10.437Z,100558
2018-04-29T01:36:02.721Z,100557
2018-04-29T01:40:54.247Z,100554
2018-04-29T01:45:45.816Z,100547
2018-04-29T01:50:37.311Z,100547
2018-04-29T01:55:28.823Z,100549
2018-04-29T02:00:21.067Z,100527
2018-04-29T02:05:12.551Z,100517
2018-04-29T02:10:04.045Z,100523
2018-04-29T02:14:56.267Z,100513
2018-04-29T02:19:47.804Z,100500
2018-04-29T02:24:39.309Z,100492
2018-04-29T02:29:30.839Z,100488
2018-04-29T02:34:22.352Z,100505
2018-04-29T02:39:13.845Z,100507
2018-04-29T02:44:05.334Z,100502
2018-04-29T02:48:56.844Z,100489
2018-04-29T02:53:49.073Z,100483
2018-04-29T02:58:41.373Z,100467
2018-04-29T03:03:32.858Z,100469
2018-04-29T03:08:25.094Z,100478
2018-04-29T03:13:17.328Z,100471
2018-04-29T03:18:08.831Z,100455
2018-04-29T03:23:00.358Z,100445
2018-04-29T03:27:51.859Z,100444
2018-04-29T03:32:44.090Z,100437
2018-04-29T03:37:35.585Z,100443
2018-04-29T03:42:27.053Z,100435
2018-04-29T03:47:18.519Z,100451
2018-04-29T03:52:10.769Z,100453
2018-04-29T03:57:21.651Z,100447
2018-04-29T04:02:32.498Z,100458
2018-04-29T04:07:23.996Z,100455
2018-04-29T04:12:15.474Z,100458
2018-04-29T04:17:06.970Z,100454
2018-04-29T04:21:58.468Z,100437
2018-04-29T04:26:50.701Z,100432
2018-04-29T04:31:42.199Z,100431
2018-04-29T04:36:33.734Z,100428
2018-04-29T04:41:25.224Z,100431
2018-04-29T04:46:17.466Z,100445
2018-04-29T04:51:09.921Z,100427
2018-04-29T04:56:01.438Z,100426
2018-04-29T05:00:53.691Z,100424
2018-04-29T05:05:46.664Z,100434
2018-04-29T05:10:38.184Z,100443
2018-04-29T05:15:29.679Z,100441
2018-04-29T05:20:21.189Z,100441
2018-04-29T05:25:13.451Z,100454
2018-04-29T05:30:04.947Z,100451
2018-04-29T05:34:56.432Z,100423
2018-04-29T05:39:47.915Z,100393
2018-04-29T05:44:40.899Z,100383
2018-04-29T05:49:33.127Z,100398
2018-04-29T05:54:24.609Z,100383
2018-04-29T05:59:16.120Z,100364
2018-04-29T06:04:08.402Z,100355
2018-04-29T06:08:59.860Z,100338
2018-04-29T06:13:51.368Z,100342
2018-04-29T06:18:42.846Z,100370
2018-04-29T06:23:36.035Z,100372
2018-04-29T06:28:27.538Z,100374
2018-04-29T06:33:19.022Z,100330
2018-04-29T06:38:11.251Z,100359
2018-04-29T06:43:02.863Z,100375
2018-04-29T06:47:54.434Z,100383
2018-04-29T06:52:46.673Z,100396
2018-04-29T06:57:38.143Z,100411
2018-04-29T07:02:29.637Z,100440
2018-04-29T07:07:21.141Z,100450
2018-04-29T07:12:12.648Z,100410
2018-04-29T07:17:04.200Z,100382
2018-04-29T07:21:55.750Z,100363
2018-04-29T07:26:47.258Z,100357
2018-04-29T07:31:38.757Z,100326
2018-04-29T07:36:30.992Z,100358
2018-04-29T07:41:22.474Z,100325
2018-04-29T07:46:13.965Z,100333
2018-04-29T07:51:06.201Z,100335
2018-04-29T07:55:57.710Z,100311
2018-04-29T08:00:49.288Z,100328
2018-04-29T08:05:40.729Z,100325
2018-04-29T08:10:32.976Z,100345
2018-04-29T08:15:25.289Z,100358
2018-04-29T08:20:16.763Z,100367
2018-04-29T08:25:09.076Z,100352
2018-04-29T08:30:00.644Z,100354
2018-04-29T08:34:52.132Z,100314
2018-04-29T08:39:43.657Z,100314
2018-04-29T08:44:35.126Z,100305
2018-04-29T08:49:26.783Z,100299
2018-04-29T08:54:19.040Z,100280
2018-04-29T08:59:11.309Z,100309
2018-04-29T09:04:02.859Z,100295
2018-04-29T09:08:54.376Z,100274
2018-04-29T09:13:45.899Z,100284
2018-04-29T09:18:37.378Z,100275
2018-04-29T09:23:28.870Z,100276
2018-04-29T09:28:20.356Z,100260
2018-04-29T09:33:13.329Z,100247
2018-04-29T09:38:04.833Z,100246
2018-04-29T09:42:56.344Z,100238
2018-04-29T09:47:47.856Z,100254
2018-04-29T09:52:40.059Z,100237
2018-04-29T09:57:31.549Z,100224
2018-04-29T10:02:23.106Z,100201
2018-04-29T10:07:14.582Z,100197
2018-04-29T10:12:06.137Z,100178
2018-04-29T10:16:58.380Z,100180
2018-04-29T10:21:50.600Z,100174
2018-04-29T10:26:42.105Z,100159
2018-04-29T10:31:33.615Z,100122
2018-04-29T10:36:25.870Z,100094
2018-04-29T10:41:18.118Z,100103
2018-04-29T10:46:09.640Z,100102
2018-04-29T10:51:01.879Z,100128
2018-04-29T10:55:53.393Z,100113
2018-04-29T11:00:44.907Z,100110
2018-04-29T11:05:36.411Z,100116
2018-04-29T11:10:27.894Z,100096
2018-04-29T11:15:19.580Z,100096
2018-04-29T11:20:11.098Z,100110
2018-04-29T11:25:03.377Z,100126
2018-04-29T11:29:54.872Z,100090
2018-04-29T11:34:47.083Z,100053
2018-04-29T11:39:38.561Z,100053
2018-04-29T11:44:30.790Z,100033
2018-04-29T11:49:22.378Z,100036
2018-04-29T11:54:13.882Z,100038
2018-04-29T11:59:06.094Z,100022
2018-04-29T12:03:57.619Z,100020
2018-04-29T12:08:49.095Z,100015
2018-04-29T12:13:41.369Z,100007
2018-04-29T12:18:33.635Z,99994
2018-04-29T12:23:25.117Z,99984
2018-04-29T12:28:16.622Z,99972
2018-04-29T12:33:08.120Z,99961
2018-04-29T12:37:59.609Z,99946
2018-04-29T12:42:51.137Z,99941
2018-04-29T12:47:42.635Z,99937
2018-04-29T12:52:34.123Z,99929
2018-04-29T12:57:25.626Z,99917
2018-04-29T13:02:17.134Z,99918
2018-04-29T13:07:08.621Z,99902
2018-04-29T13:12:00.124Z,99894
2018-04-29T13:16:51.681Z,99893
2018-04-29T13:21:43.159Z,99888
2018-04-29T13:26:34.670Z,99890
2018-04-29T13:31:26.907Z,99871
2018-04-29T13:36:18.394Z,99867
2018-04-29T13:41:09.913Z,99875
2018-04-29T13:46:01.443Z,99852
2018-04-29T13:50:52.963Z,99843
2018-04-29T13:55:45.198Z,99841
2018-04-29T14:00:36.734Z,99846
2018-04-29T14:05:28.967Z,99844
2018-04-29T14:10:20.482Z,99834
2018-04-29T14:15:11.955Z,99829
2018-04-29T14:20:04.256Z,99834
2018-04-29T14:24:55.744Z,99849
2018-04-29T14:29:48.024Z,99862
2018-04-29T14:34:39.504Z,99841
2018-04-29T14:39:31.027Z,99826
2018-04-29T14:44:22.583Z,99846
2018-04-29T14:49:14.093Z,99843
2018-04-29T14:54:05.725Z,99843
2018-04-29T14:58:57.251Z,99831
2018-04-29T15:03:48.785Z,99834
2018-04-29T15:08:40.322Z,99820
2018-04-29T15:13:31.788Z,99783
2018-04-29T15:18:41.798Z,99787
2018-04-29T15:23:33.337Z,99778
2018-04-29T15:28:24.859Z,99778
2018-04-29T15:33:16.348Z,99769
2018-04-29T15:38:07.840Z,99763
2018-04-29T15:42:59.356Z,99744
2018-04-29T15:47:50.844Z,99730
2018-04-29T15:52:42.337Z,99720
2018-04-29T15:57:33.866Z,99704
2018-04-29T16:02:25.354Z,99710
2018-04-29T16:07:17.621Z,99719
2018-04-29T16:12:09.853Z,99719
2018-04-29T16:17:01.349Z,99701
2018-04-29T16:21:52.851Z,99682
2018-04-29T16:26:45.107Z,99678
2018-04-29T16:31:36.596Z,99673
2018-04-29T16:36:28.114Z,99654
2018-04-29T16:41:20.358Z,99658
2018-04-29T16:46:11.872Z,99656
2018-04-29T16:51:03.396Z,99644
2018-04-29T16:55:54.885Z,99624
2018-04-29T17:00:46.395Z,99609
2018-04-29T17:05:37.862Z,99617
2018-04-29T17:10:29.365Z,99616
2018-04-29T17:15:21.658Z,99611
2018-04-29T17:20:13.892Z,99602
2018-04-29T17:25:06.003Z,99594
2018-04-29T17:29:57.482Z,99583
2018-04-29T17:34:48.993Z,99571
2018-04-29T17:39:40.496Z,99566
2018-04-29T17:44:32.000Z,99558
2018-04-29T17:49:24.261Z,99557
2018-04-29T17:54:15.796Z,99549
2018-04-29T17:59:08.058Z,99546
2018-04-29T18:03:59.569Z,99537
2018-04-29T18:08:51.816Z,99523
2018-04-29T18:13:44.069Z,99513
2018-04-29T18:18:36.319Z,99521
2018-04-29T18:23:28.539Z,99520
2018-04-29T18:28:20.049Z,99519
2018-04-29T18:33:11.574Z,99507
2018-04-29T18:38:03.083Z,99500
2018-04-29T18:42:55.325Z,99512
2018-04-29T18:47:47.542Z,99501
2018-04-29T18:52:39.044Z,99495
2018-04-29T18:57:30.548Z,99496
2018-04-29T19:02:22.811Z,99490
2018-04-29T19:07:14.292Z,99488
2018-04-29T19:12:05.836Z,99484
2018-04-29T19:16:57.351Z,99479
2018-04-29T19:21:49.195Z,99476
2018-04-29T19:26:40.698Z,99461
2018-04-29T19:31:32.838Z,99448
2018-04-29T19:36:24.211Z,99436
2018-04-29T19:41:15.699Z,99425
2018-04-29T19:46:07.220Z,99405
2018-04-29T19:50:59.446Z,99391
2018-04-29T19:55:50.930Z,99377
2018-04-29T20:00:42.445Z,99363
2018-04-29T20:05:34.685Z,99340
2018-04-29T20:10:27.002Z,99312
2018-04-29T20:15:18.519Z,99295
2018-04-29T20:20:10.032Z,99286
2018-04-29T20:25:01.531Z,99283
2018-04-29T20:29:53.758Z,99284
2018-04-29T20:34:45.250Z,99270
2018-04-29T20:39:36.736Z,99262
2018-04-29T20:44:28.439Z,99244
2018-04-29T20:49:19.983Z,99232
2018-04-29T20:54:11.503Z,99208
2018-04-29T20:59:03.021Z,99194
2018-04-29T21:03:54.499Z,99181
2018-04-29T21:08:45.992Z,99157
2018-04-29T21:13:37.545Z,99151
2018-04-29T21:18:29.753Z,99138
2018-04-29T21:23:21.251Z,99140
2018-04-29T21:28:12.742Z,99125
2018-04-29T21:33:04.271Z,99108
2018-04-29T21:37:55.755Z,99110
2018-04-29T21:42:47.257Z,99126
2018-04-29T21:47:38.746Z,99149
2018-04-29T21:52:30.962Z,99149
2018-04-29T21:57:22.505Z,99129
2018-04-29T22:02:14.062Z,99125
2018-04-29T22:07:06.330Z,99158
2018-04-29T22:11:58.556Z,99300
2018-04-29T22:16:50.090Z,99292
2018-04-29T22:21:42.452Z,99238
2018-04-29T22:26:33.879Z,99258
2018-04-29T22:31:26.133Z,99261
2018-04-29T22:36:18.393Z,99256
2018-04-29T22:41:10.633Z,99257
2018-04-29T22:46:02.926Z,99231
2018-04-29T22:50:55.271Z,99326
2018-04-29T22:55:46.871Z,99368
2018-04-29T23:00:38.359Z,99310
2018-04-29T23:05:30.023Z,99342
2018-04-29T23:10:21.518Z,99293
2018-04-29T23:15:13.025Z,99256
2018-04-29T23:20:05.255Z,99242
2018-04-29T23:24:56.772Z,99237
2018-04-29T23:29:48.266Z,99242
2018-04-29T23:34:39.861Z,99228
2018-04-29T23:39:31.380Z,99186
2018-04-29T23:44:22.889Z,99180
2018-04-29T23:49:14.411Z,99171
2018-04-29T23:54:05.916Z,99155
2018-04-29T23:58:57.424Z,99168
